This is the latest recevied weather packets stored in our database for station/object W4MLN-1. If no packets are shown the sender has not sent any weather packets the latest 10 day(s).
| Time | Temp. | Humidity | Pressure | Rain* | Wind** | Luminosity | Snow |
|---|---|---|---|---|---|---|---|
| 1777911573 | 16.67° C | 54% | 1016 hPa | 0 mm | - | 844 W/m² | - |
| 1777911272 | 17.22° C | 53% | 1016 hPa | 0 mm | - | 822 W/m² | - |
| 1777910970 | 16.67° C | 57% | 1016.1 hPa | 0 mm | - | 862 W/m² | - |
| 1777910669 | 16.67° C | 57% | 1016.1 hPa | 0 mm | - | 930 W/m² | - |
| 1777910367 | 16.67° C | 55% | 1016.2 hPa | 0 mm | - | 881 W/m² | - |
| 1777910067 | 16.11° C | 58% | 1016.3 hPa | 0 mm | - | 933 W/m² | - |
| 1777909768 | 15.56° C | 59% | 1016.3 hPa | 0 mm | - | 963 W/m² | - |
| 1777909467 | 15.56° C | 59% | 1016.3 hPa | 0 mm | - | 933 W/m² | - |
| 1777909168 | 15.56° C | 60% | 1016.3 hPa | 0 mm | - | 795 W/m² | - |
| 1777908867 | 15° C | 61% | 1016.6 hPa | 0 mm | - | 976 W/m² | - |
| 1777908568 | 14.44° C | 60% | 1016.9 hPa | 0 mm | - | 915 W/m² | - |
| 1777908267 | 13.89° C | 65% | 1017 hPa | 0 mm | - | 881 W/m² | - |
| 1777907967 | 13.33° C | 65% | 1017.1 hPa | 0 mm | - | 866 W/m² | - |
| 1777907667 | 12.78° C | 70% | 1017.2 hPa | 0 mm | - | 793 W/m² | - |
| 1777907365 | 12.78° C | 68% | 1017.4 hPa | 0 mm | - | 596 W/m² | - |
| 1777907065 | 12.78° C | 68% | 1017.5 hPa | 0 mm | - | 339 W/m² | - |
| 1777906762 | 12.78° C | 67% | 1017.8 hPa | 0 mm | - | 245 W/m² | - |
| 1777906462 | 12.78° C | 64% | 1017.8 hPa | 0 mm | - | 355 W/m² | - |
| 1777906161 | 12.78° C | 64% | 1017.9 hPa | 0 mm | - | 290 W/m² | - |
| 1777905862 | 12.78° C | 64% | 1018.2 hPa | 0 mm | - | 368 W/m² | - |
| 1777905562 | 12.78° C | 63% | 1018.3 hPa | 0 mm | - | 235 W/m² | - |
| 1777905262 | 13.33° C | 60% | 1018.3 hPa | 0 mm | - | 184 W/m² | - |
| 1777904963 | 13.33° C | 58% | 1018 hPa | 0 mm | - | 179 W/m² | - |
| 1777904662 | 13.33° C | 58% | 1017.9 hPa | 0 mm | - | 198 W/m² | - |
| 1777904363 | 13.33° C | 57% | 1017.9 hPa | 0 mm | - | 279 W/m² | - |
* Rain latest hour (hover to see other rain measurements)
** Current wind speed in m/s (hover to see current wind gust speed)